createdAt,value
2019-04-04T00:04:41.006Z,11.74
2019-04-04T00:10:35.960Z,11.11
2019-04-04T00:16:30.982Z,10.88
2019-04-04T00:22:25.954Z,9.13
2019-04-04T00:28:20.995Z,10.6
2019-04-04T00:34:16.017Z,12.02
2019-04-04T00:40:11.786Z,11.45
2019-04-04T00:46:06.025Z,9.36
2019-04-04T00:52:01.009Z,11.96
2019-04-04T00:57:56.010Z,8.95
2019-04-04T01:03:50.991Z,12.97
2019-04-04T01:09:47.863Z,15.15
2019-04-04T01:15:40.998Z,10.24
2019-04-04T01:21:36.028Z,11.16
2019-04-04T01:27:30.999Z,14.06
2019-04-04T01:33:26.036Z,15.39
2019-04-04T01:39:21.004Z,13.7
2019-04-04T01:45:16.037Z,13.93
2019-04-04T01:51:11.038Z,15.32
2019-04-04T01:57:08.014Z,12.7
2019-04-04T02:03:01.024Z,14.55
2019-04-04T02:08:56.017Z,14.3
2019-04-04T02:14:50.998Z,16.46
2019-04-04T02:20:46.025Z,13.61
2019-04-04T02:26:41.012Z,17.48
2019-04-04T02:32:36.009Z,14.6
2019-04-04T02:38:31.038Z,13.81
2019-04-04T02:44:26.052Z,15
2019-04-04T02:50:21.037Z,15.56
2019-04-04T02:56:16.005Z,14.6
2019-04-04T03:02:11.058Z,14.76
2019-04-04T03:08:06.066Z,14.33
2019-04-04T03:14:03.677Z,12.87
2019-04-04T03:19:56.020Z,10.5
2019-04-04T03:25:51.023Z,13.07
2019-04-04T03:31:46.044Z,13.63
2019-04-04T03:37:41.807Z,11.62
2019-04-04T03:43:36.056Z,15.75
2019-04-04T03:49:31.042Z,12.94
2019-04-04T03:55:27.759Z,13.55
2019-04-04T04:01:21.053Z,14.97
2019-04-04T04:07:16.023Z,14.63
2019-04-04T04:13:11.061Z,15.21
2019-04-04T04:19:06.137Z,19.58
2019-04-04T04:25:03.226Z,13.32
2019-04-04T04:30:56.048Z,14.98
2019-04-04T04:36:51.114Z,19.62
2019-04-04T04:42:46.049Z,16.63
2019-04-04T04:48:41.081Z,20.9
2019-04-04T04:54:36.047Z,15.59
2019-04-04T05:00:31.056Z,17.9
2019-04-04T05:06:26.056Z,15.63
2019-04-04T05:12:21.829Z,14.13
2019-04-04T05:18:16.887Z,14.8
2019-04-04T05:24:11.050Z,14.3
2019-04-04T05:30:08.275Z,12.75
2019-04-04T05:36:01.123Z,13.6
2019-04-04T05:41:56.072Z,21.03
2019-04-04T05:47:51.094Z,21.69
2019-04-04T05:53:46.108Z,18.17
2019-04-04T05:59:42.393Z,15.76
2019-04-04T06:05:36.126Z,17.03
2019-04-04T06:11:31.087Z,15.52
2019-04-04T06:17:27.028Z,13.47
2019-04-04T06:23:21.106Z,14.74
2019-04-04T06:29:17.329Z,17.17
2019-04-04T06:35:11.116Z,18.04
2019-04-04T06:41:06.105Z,15.62
2019-04-04T06:47:02.042Z,17.29
2019-04-04T06:52:56.598Z,14.16
2019-04-04T06:58:51.090Z,14.2
2019-04-04T07:04:46.087Z,15.42
2019-04-04T07:10:41.093Z,14.31
2019-04-04T07:16:36.696Z,12.3
2019-04-04T07:22:31.124Z,10.55
2019-04-04T07:28:26.132Z,11.68
2019-04-04T07:34:21.166Z,11.9
2019-04-04T07:40:16.120Z,15.14
2019-04-04T07:46:16.496Z,9.97
2019-04-04T07:52:06.169Z,10.06
2019-04-04T07:58:01.130Z,11.38
2019-04-04T08:03:56.134Z,8.81
2019-04-04T08:09:51.159Z,13.03
2019-04-04T08:15:46.176Z,11.32
2019-04-04T08:21:41.109Z,9.64
2019-04-04T08:27:36.107Z,11.23
2019-04-04T08:33:31.100Z,10.23
2019-04-04T08:39:26.166Z,12.45
2019-04-04T08:45:21.145Z,11.87
2019-04-04T08:51:16.135Z,12.23
2019-04-04T08:57:11.131Z,10.9
2019-04-04T09:03:06.142Z,9.33
2019-04-04T09:09:01.167Z,11
2019-04-04T09:14:56.113Z,11.14
2019-04-04T09:20:51.138Z,8.06
2019-04-04T09:26:46.182Z,8.95
2019-04-04T09:32:41.188Z,13.67
2019-04-04T09:38:36.179Z,9.29
2019-04-04T09:44:31.160Z,11.3
2019-04-04T09:50:26.143Z,9.04
2019-04-04T09:56:21.146Z,12.66
2019-04-04T10:02:16.141Z,7.91
2019-04-04T10:08:11.183Z,6.61
2019-04-04T10:14:06.230Z,9.34
2019-04-04T10:20:01.215Z,10.7
2019-04-04T10:25:56.174Z,8.65
2019-04-04T10:31:51.180Z,6.73
2019-04-04T10:37:46.146Z,12.75
2019-04-04T10:43:41.175Z,9.7
2019-04-04T10:49:36.166Z,9.29
2019-04-04T10:55:31.258Z,6.59
2019-04-04T11:01:26.171Z,7.22
2019-04-04T11:07:21.170Z,9.99
2019-04-04T11:13:16.202Z,11.2
2019-04-04T11:19:11.210Z,7.61
2019-04-04T11:25:06.204Z,8.45
2019-04-04T11:31:01.176Z,7.33
2019-04-04T11:36:56.185Z,8.59
2019-04-04T11:42:51.232Z,8.1
2019-04-04T11:48:46.171Z,10.51
2019-04-04T11:54:41.178Z,8.87
2019-04-04T12:00:36.216Z,6.1
2019-04-04T12:06:31.234Z,5.58
2019-04-04T12:12:26.202Z,6.27
2019-04-04T12:18:21.185Z,9.21
2019-04-04T12:24:16.193Z,9.5
2019-04-04T12:30:11.272Z,7.23
2019-04-04T12:36:06.281Z,7.8
2019-04-04T12:42:01.262Z,7.47
2019-04-04T12:47:56.195Z,5.57
2019-04-04T12:53:51.221Z,6.51
2019-04-04T12:59:46.223Z,4.27
2019-04-04T13:05:41.206Z,7.39
2019-04-04T13:11:36.218Z,5.67
2019-04-04T13:17:31.204Z,6.8
2019-04-04T13:23:26.221Z,7.85
2019-04-04T13:29:21.334Z,4.72
2019-04-04T13:35:16.230Z,4.12
2019-04-04T13:41:21.202Z,4.8
2019-04-04T13:47:06.231Z,5.67
2019-04-04T13:53:01.207Z,7.3
2019-04-04T13:58:56.237Z,6.06
2019-04-04T14:04:52.923Z,7.66
2019-04-04T14:10:57.448Z,5.55
2019-04-04T14:16:41.259Z,6.78
2019-04-04T14:22:36.247Z,4.54
2019-04-04T14:28:31.267Z,5.58
2019-04-04T14:34:26.252Z,7.28
2019-04-04T14:40:21.234Z,3.46
2019-04-04T14:46:16.260Z,1.91
2019-04-04T14:52:11.288Z,3
2019-04-04T14:58:06.272Z,3.06
2019-04-04T15:04:01.277Z,2.9
2019-04-04T15:09:56.272Z,4.16
2019-04-04T15:15:51.270Z,3.46
2019-04-04T15:21:46.291Z,4.73
2019-04-04T15:27:41.273Z,2.83
2019-04-04T15:33:36.288Z,3.89
2019-04-04T15:39:31.279Z,2.34
2019-04-04T15:45:26.284Z,4.42
2019-04-04T15:51:21.319Z,4.23
2019-04-04T15:57:16.297Z,5.52
2019-04-04T16:03:11.286Z,6.77
2019-04-04T16:09:06.332Z,4.91
2019-04-04T16:15:01.278Z,4.12
2019-04-04T16:20:56.298Z,4.39
2019-04-04T16:26:51.279Z,3.01
2019-04-04T16:32:46.310Z,2.88
2019-04-04T16:38:41.314Z,2.3
2019-04-04T16:44:36.292Z,3.11
2019-04-04T16:50:31.268Z,4.23
2019-04-04T16:56:26.297Z,17.31
2019-04-04T17:02:21.287Z,4.87
2019-04-04T17:08:16.292Z,2.51
2019-04-04T17:14:11.291Z,4.37
2019-04-04T17:20:06.327Z,9.05
2019-04-04T17:26:01.291Z,5.68
2019-04-04T17:31:56.286Z,4.88
2019-04-04T17:37:51.599Z,6.62
2019-04-04T17:43:46.296Z,3.53
2019-04-04T17:49:41.307Z,3.78
2019-04-04T17:55:36.843Z,3.44
2019-04-04T18:01:31.286Z,7.84
2019-04-04T18:07:26.279Z,4.97
2019-04-04T18:13:21.304Z,5.16
2019-04-04T18:19:16.295Z,3.77
2019-04-04T18:25:11.293Z,3.56
2019-04-04T18:31:06.319Z,3.4
2019-04-04T18:37:01.393Z,5.47
2019-04-04T18:42:56.320Z,5.09
2019-04-04T18:48:51.331Z,2.84
2019-04-04T18:54:46.327Z,4.55
2019-04-04T19:00:41.284Z,4.11
2019-04-04T19:06:36.332Z,3.27
2019-04-04T19:12:31.336Z,4.4
2019-04-04T19:18:26.339Z,3.69
2019-04-04T19:24:21.347Z,3.14
2019-04-04T19:30:16.349Z,4.9
2019-04-04T19:36:11.345Z,6.67
2019-04-04T19:42:06.293Z,3.37
2019-04-04T19:48:01.388Z,5.2
2019-04-04T19:53:56.343Z,4.88
2019-04-04T19:59:51.338Z,5.9
2019-04-04T20:05:46.310Z,5.66
2019-04-04T20:11:41.319Z,6.79
2019-04-04T20:17:36.313Z,5.79
2019-04-04T20:23:31.337Z,5.87
2019-04-04T20:29:26.341Z,7.08
2019-04-04T20:35:21.312Z,5.18
2019-04-04T20:41:16.721Z,3.81
2019-04-04T20:47:11.317Z,4.67
2019-04-04T20:53:06.347Z,7.37
2019-04-04T20:59:01.346Z,6.34
2019-04-04T21:04:56.325Z,7.7
2019-04-04T21:10:51.830Z,5.95
2019-04-04T21:16:46.321Z,4.86
2019-04-04T21:22:41.335Z,3
2019-04-04T21:28:36.341Z,6.42
2019-04-04T21:34:31.372Z,6.4
2019-04-04T21:40:26.329Z,6.2
2019-04-04T21:46:21.332Z,4.25
2019-04-04T21:52:16.308Z,10.3
2019-04-04T21:58:11.321Z,5.89
2019-04-04T22:04:06.323Z,9.85
2019-04-04T22:10:01.311Z,6.88
2019-04-04T22:15:56.336Z,7.96
2019-04-04T22:21:51.299Z,4.17
2019-04-04T22:27:46.342Z,8.07
2019-04-04T22:33:41.356Z,5.56
2019-04-04T22:39:36.311Z,6.61
2019-04-04T22:45:31.360Z,11.73
2019-04-04T22:51:26.340Z,7.16
2019-04-04T22:57:21.333Z,5.78
2019-04-04T23:03:16.360Z,7.31
2019-04-04T23:09:11.318Z,5.23
2019-04-04T23:15:06.360Z,4.89
2019-04-04T23:21:01.326Z,5.23
2019-04-04T23:26:56.325Z,6.8
2019-04-04T23:32:51.400Z,5.27
2019-04-04T23:38:46.337Z,5.82
2019-04-04T23:44:41.335Z,6.64
2019-04-04T23:50:36.389Z,6.79
2019-04-04T23:56:31.320Z,7.23
